Seward, Illinois
Current Conditions -  °F | °C
As of 4:15 PM on Tuesday 21 Oct 2014 (Local Time) from KFEP Reporting Station
Clear Clear  
Wind Chill: 51°   Ceiling: Unl
Heat Index: 51°   Visibility: 10mi
Dew Point: 38°   Wind: 7mph
Humidity: 60%   Direction: 30°NNE
Pressure: 30.22"   Gusts: NA
Location:  42.24°N, 89.36°W
Report Text: KFEP 212115Z AUTO 03006KT 10SM CLR 11/03 A3022 RMK AO2 T01070032
Loading
Personal Weather Stations






























Interactive Weather Map
Tropical Storm Tracking
New forecast layout! Learn more

10-Day Weather Forecast

Advertisements
Track Severe Weather on mobile